Terminal Aerodrome Forecast
Issued by NWS Newport/Morehead City, NC

Home | Current Version | Previous Version | Text Only | Print | Product List | Glossary Off
Versions: 1 2 3 4 5 6 7 8 9 10 11 12 13 14 15 16 17 18

000
FTUS42 KMHX 191700
TAFEWN
TAF
KEWN 191737Z 1918/2018 30007KT P6SM SCT025 BKN035
      TEMPO 1918/1919 BKN025
     FM192000 29008KT P6SM VCTS BKN035CB
     FM200200 33004KT P6SM SCT040 BKN100
     FM200800 01003KT 5SM BR SCT007 BKN100
     FM201300 02005KT P6SM SCT040=

USA.gov is the U.S. government's official web portal to all federal, state and local government web resources and services.